Latest Weather Observations for Norfolk Island

IDN60801

Issued at 11:05 pm EST Sunday 20 April 2014 (issued every 30 minutes, with the page automatically refreshed every 10 minutes)

About weather observations | Map of weather stations | Latest weather observations for NSW | Other Formats
Station Details ID: 200288 Name: NORFOLK ISLAND AERO Lat: -29.04 Lon: 167.94 Height: 111.73 m
Data from the previous 72 hours. | See also: Recent months at Norfolk Island
Date/Time
EST
Temp
°C
App
Temp
°C
Dew
Point
Rel
Hum
%
Delta-T
°C
Wind Press
QNH
hPa
Press
MSL
hPa
Rain
since 9 am
mm
Dir
 
Spd
km/h
Gust
km/h
Spd
kts
Gust
kts
20/11:00pm 18.6 18.9 15.9 84 1.6 SW 9 11 5 6 1019.2 - 0.2
20/10:30pm 19.1 19.4 15.9 82 1.9 SW 9 11 5 6 1019.2 1018.9 0.2
20/10:00pm 19.9 20.5 16.9 83 1.8 SW 9 13 5 7 1019.2 - 0.2
20/09:30pm 19.4 19.5 16.6 84 1.7 WSW 11 15 6 8 1019.1 - 0.2
20/09:00pm 19.2 19.5 16.0 82 1.9 WSW 9 11 5 6 1019.0 - 0.2
20/08:30pm 19.2 19.0 15.8 81 2.0 WSW 11 15 6 8 1019.0 - 0.2
20/08:00pm 19.5 20.4 16.5 83 1.8 WSW 7 9 4 5 1018.8 - 0.2
20/07:30pm 19.8 19.9 16.5 81 2.0 WSW 11 15 6 8 1018.8 1018.5 0.2
20/07:00pm 19.8 19.8 16.3 80 2.1 WSW 11 15 6 8 1018.6 - 0.2
20/06:30pm 20.2 19.7 16.0 77 2.5 WSW 13 19 7 10 1018.2 - 0.2
20/06:00pm 20.3 20.1 16.7 80 2.2 WSW 13 17 7 9 1017.9 - 0.2
20/05:30pm 20.2 19.9 16.4 79 2.3 W 13 19 7 10 1017.6 - 0.2
20/05:00pm 20.3 19.5 16.0 76 2.6 W 15 20 8 11 1017.2 - 0.2
20/04:30pm 20.4 20.2 16.6 79 2.3 W 13 17 7 9 1016.9 1016.5 0.2
20/04:00pm 20.9 20.0 15.9 73 3.0 W 15 19 8 10 1016.6 - 0.2
20/03:30pm 21.6 20.4 16.1 71 3.3 W 17 22 9 12 1016.3 - 0.2
20/03:00pm 22.0 20.3 15.7 67 3.8 W 19 24 10 13 1016.1 - 0.2
20/02:30pm 22.4 20.3 15.2 63 4.3 WNW 20 30 11 16 1016.1 - 0.2
20/02:00pm 22.6 20.1 14.1 58 5.0 W 20 28 11 15 1016.1 - 0.2
20/01:30pm 22.9 19.9 13.6 55 5.4 WNW 22 32 12 17 1016.2 1015.8 0.2
20/01:00pm 22.9 20.3 13.8 56 5.3 W 20 30 11 16 1016.1 - 0.2
20/12:30pm 23.1 20.0 14.5 58 5.1 WNW 24 32 13 17 1016.2 - 0.2
20/12:00pm 22.8 18.8 12.9 53 5.7 WNW 26 33 14 18 1016.4 - 0.2
20/11:30am 22.9 18.9 13.0 53 5.7 W 26 33 14 18 1016.6 - 0.2
20/11:00am 23.1 19.5 13.1 53 5.8 W 24 32 13 17 1016.9 - 0.2
20/10:30am 22.7 18.7 13.0 54 5.6 W 26 33 14 18 1017.2 1016.8 0.2
20/10:00am 22.8 19.3 13.5 55 5.4 W 24 30 13 16 1017.3 - 0.0
20/09:30am 22.6 20.2 14.5 60 4.8 W 20 26 11 14 1017.5 - 0.0
20/09:00am 22.2 19.5 13.4 57 5.1 WNW 20 30 11 16 1017.6 - 0.0
20/08:30am 22.0 19.4 13.7 59 4.8 W 20 26 11 14 1017.6 - 0.0
20/08:00am 21.7 19.8 15.1 66 3.9 WNW 19 26 10 14 1017.5 - 0.0
20/07:30am 21.2 19.6 15.1 68 3.6 W 17 26 9 14 1017.4 1017.0 1.4
20/07:00am 20.7 19.1 15.1 70 3.3 W 17 20 9 11 1017.2 - 1.4
20/06:46am 20.5 19.0 15.3 72 3.1 W 17 24 9 13 1017.1 - 1.4
20/06:30am 20.1 18.7 15.6 75 2.7 W 17 22 9 12 1016.9 - 1.4
20/06:00am 19.6 18.6 15.6 78 2.4 W 15 22 8 12 1016.7 - 1.4
20/05:30am 19.1 17.2 14.1 73 2.9 W 17 22 9 12 1016.4 - 1.4
20/05:00am 18.4 17.4 14.6 78 2.2 W 13 20 7 11 1016.1 - 1.4
20/04:30am 17.0 17.0 15.1 88 1.1 WNW 9 13 5 7 1015.9 1015.5 1.4
20/04:00am 17.0 17.3 15.1 88 1.1 NW 7 9 4 5 1015.6 - 1.4
20/03:30am 16.7 16.7 15.2 91 0.9 NW 9 11 5 6 1015.6 - 1.4
20/03:17am 17.4 16.4 14.5 83 1.7 NW 13 17 7 9 1015.5 - 1.4
20/03:00am 17.7 15.2 13.5 76 2.4 W 19 30 10 16 1015.5 - 1.2
20/02:59am 17.8 15.5 14.0 78 2.2 W 19 30 10 16 1015.5 - 1.2
20/02:30am 18.8 19.0 15.8 83 1.8 NNW 9 11 5 6 1015.4 - 0.0
20/02:00am 18.9 19.4 15.5 80 2.0 N 7 13 4 7 1015.4 - 0.0
20/01:30am 19.0 19.0 15.1 78 2.3 N 9 15 5 8 1015.5 1015.1 0.0
20/01:00am 18.8 18.8 15.2 79 2.1 N 9 13 5 7 1015.8 - 0.0
20/12:30am 18.4 18.2 14.8 79 2.1 N 9 11 5 6 1015.8 - 0.0
20/12:00am 18.2 18.1 14.9 81 1.9 NNW 9 13 5 7 1016.0 - 0.0
 
Date/Time
EST
Temp
°C
App
Temp
°C
Dew
Point
Rel
Hum
%
Delta-T
°C
Wind Press
QNH
hPa
Press
MSL
hPa
Rain
since 9 am
mm
Dir
 
Spd
km/h
Gust
km/h
Spd
kts
Gust
kts
19/11:30pm 18.2 18.5 15.1 82 1.8 NNW 7 11 4 6 1016.1 - 0.0
19/11:00pm 18.2 18.4 15.7 85 1.5 NNW 9 13 5 7 1016.3 - 0.0
19/10:30pm 18.4 17.4 15.7 84 1.6 NW 15 22 8 12 1016.3 1015.9 0.0
19/10:00pm 18.6 18.2 14.1 75 2.6 NNW 9 13 5 7 1016.2 - 0.0
19/09:30pm 18.8 18.0 13.9 73 2.8 NW 11 20 6 11 1016.3 - 0.0
19/09:00pm 18.8 18.4 14.1 74 2.7 NNW 9 15 5 8 1016.2 - 0.0
19/08:30pm 19.2 18.7 14.8 75 2.6 NNW 11 15 6 8 1016.2 - 0.0
19/08:00pm 19.3 19.7 15.2 77 2.4 NNW 7 11 4 6 1016.2 - 0.0
19/07:30pm 18.9 19.1 15.7 82 1.9 NW 9 13 5 7 1016.0 1015.6 0.0
19/07:00pm 18.2 18.1 13.8 75 2.5 WNW 7 9 4 5 1015.9 - 0.0
19/06:30pm 18.6 18.4 13.7 73 2.8 NW 7 9 4 5 1015.7 - 0.0
19/06:00pm 17.6 18.8 13.7 78 2.2 CALM 0 0 0 0 1015.4 - 0.0
19/05:30pm 18.2 18.2 13.6 74 2.6 WNW 6 7 3 4 1014.9 - 0.0
19/05:00pm 19.2 18.6 13.6 70 3.2 W 9 11 5 6 1014.7 - 0.0
19/04:30pm 20.1 19.3 13.9 67 3.6 WNW 11 13 6 7 1014.5 1014.1 0.0
19/04:00pm 21.1 20.4 14.3 65 4.0 W 11 17 6 9 1014.4 - 0.0
19/03:30pm 21.1 20.9 14.8 67 3.7 W 9 13 5 7 1014.3 - 0.0
19/03:00pm 21.1 20.0 15.2 69 3.5 WSW 15 19 8 10 1014.1 - 0.0
19/02:30pm 22.1 20.6 14.3 61 4.6 W 15 22 8 12 1013.9 - 0.0
19/02:00pm 22.7 20.8 14.2 58 5.0 W 17 22 9 12 1013.7 - 0.0
19/01:30pm 22.6 20.8 14.5 60 4.8 WSW 17 24 9 13 1013.7 1013.4 0.0
19/01:00pm 23.0 21.3 14.6 59 5.0 W 17 22 9 12 1013.8 - 0.0
19/12:30pm 22.4 19.9 14.2 59 4.8 W 20 28 11 15 1013.9 - 0.0
19/12:00pm 22.4 20.1 14.2 59 4.8 W 19 28 10 15 1014.2 - 0.0
19/11:30am 22.6 20.5 14.7 61 4.7 W 19 28 10 15 1014.5 - 0.0
19/11:00am 22.3 20.7 15.1 63 4.3 W 17 24 9 13 1014.8 - 0.0
19/10:30am 22.5 21.2 14.9 62 4.5 W 15 20 8 11 1015.1 1014.7 0.0
19/10:00am 22.2 19.8 13.8 59 4.9 WNW 19 28 10 15 1015.5 - 0.0
19/09:30am 22.0 19.5 13.4 58 5.0 WNW 19 26 10 14 1015.7 - 0.0
19/09:00am 21.2 18.0 11.9 55 5.2 WNW 20 28 11 15 1015.8 - 0.0
19/08:30am 21.9 18.7 13.0 57 5.1 W 22 30 12 16 1015.9 - 0.0
19/08:00am 22.0 19.3 12.9 56 5.2 W 19 26 10 14 1015.7 - 0.0
19/07:30am 21.5 18.2 11.7 53 5.5 W 20 26 11 14 1015.6 1015.2 0.0
19/07:00am 21.3 18.8 12.3 56 5.1 W 17 24 9 13 1015.4 - 0.0
19/06:30am 20.8 17.5 11.0 53 5.4 W 19 26 10 14 1015.1 - 0.0
19/06:00am 20.3 17.9 13.7 66 3.8 W 19 26 10 14 1014.7 - 0.0
19/05:30am 19.7 17.7 13.8 69 3.4 W 17 26 9 14 1014.4 - 0.0
19/05:00am 19.5 18.1 15.5 77 2.4 W 17 22 9 12 1014.1 - 0.0
19/04:30am 19.5 18.1 14.5 73 2.9 W 15 24 8 13 1013.6 1013.3 0.0
19/04:00am 19.5 18.1 14.5 73 2.9 W 15 24 8 13 1013.4 - 0.0
19/03:30am 19.5 18.4 15.3 76 2.5 W 15 20 8 11 1013.1 - 0.0
19/03:00am 19.3 18.8 15.8 80 2.1 WSW 13 19 7 10 1012.9 - 0.0
19/02:30am 19.4 18.6 15.2 76 2.5 WSW 13 20 7 11 1012.8 - 0.0
19/02:00am 19.5 18.4 15.3 76 2.5 WSW 15 20 8 11 1012.8 - 0.0
19/01:30am 19.9 18.8 15.4 75 2.7 WSW 15 24 8 13 1012.7 1012.4 0.0
19/01:00am 20.0 18.6 15.5 75 2.7 WSW 17 28 9 15 1012.6 - 0.0
19/12:30am 20.3 18.7 16.0 76 2.6 W 19 26 10 14 1012.6 - 0.0
19/12:00am 20.1 18.3 16.1 78 2.4 W 20 26 11 14 1012.7 - 0.0
 
Date/Time
EST
Temp
°C
App
Temp
°C
Dew
Point
Rel
Hum
%
Delta-T
°C
Wind Press
QNH
hPa
Press
MSL
hPa
Rain
since 9 am
mm
Dir
 
Spd
km/h
Gust
km/h
Spd
kts
Gust
kts
18/11:30pm 20.1 18.2 15.8 76 2.6 W 20 28 11 15 1012.7 - 0.0
18/11:00pm 20.2 18.1 15.3 73 2.9 W 20 26 11 14 1012.6 - 0.0
18/10:30pm 20.4 18.2 15.9 75 2.7 W 22 30 12 16 1012.6 1012.3 0.0
18/10:00pm 20.4 18.2 15.9 75 2.7 W 22 33 12 18 1012.6 - 0.0
18/09:30pm 20.4 17.7 15.7 74 2.8 W 24 33 13 18 1012.5 - 0.0
18/09:00pm 20.5 17.4 15.5 73 3.0 W 26 35 14 19 1012.6 - 0.0
18/08:30pm 20.6 17.7 15.0 70 3.3 W 24 33 13 18 1012.5 - 0.0
18/08:00pm 20.6 18.3 15.8 74 2.9 W 22 30 12 16 1012.4 - 0.0
18/07:30pm 20.3 18.7 16.0 76 2.6 W 19 26 10 14 1012.2 1011.9 0.0
18/07:00pm 19.9 17.3 15.9 78 2.4 W 24 37 13 20 1012.1 - 0.0
18/06:30pm 20.8 18.5 15.6 72 3.1 W 22 32 12 17 1011.7 - 0.0
18/06:00pm 21.1 18.9 14.8 67 3.7 W 20 32 11 17 1011.3 - 0.0
18/05:30pm 21.1 17.8 15.0 68 3.6 W 26 35 14 19 1010.9 - 0.0
18/05:00pm 21.0 17.9 14.5 66 3.8 W 24 37 13 20 1010.7 - 0.0
18/04:30pm 20.9 18.8 14.6 67 3.7 W 19 28 10 15 1010.4 1010.1 0.0
18/04:00pm 21.4 19.0 14.4 64 4.1 W 20 32 11 17 1010.2 - 0.0
18/03:30pm 21.8 17.5 13.3 58 4.9 W 28 37 15 20 1010.0 - 0.0
18/03:00pm 22.3 18.6 13.9 59 4.9 W 26 35 14 19 1009.8 - 0.0
18/02:30pm 22.3 18.2 13.9 59 4.9 W 28 41 15 22 1009.6 - 0.0
18/02:00pm 22.7 18.1 13.4 55 5.4 W 30 39 16 21 1009.5 - 0.0
18/01:30pm 22.8 17.8 13.3 55 5.5 W 32 39 17 21 1009.5 - 0.0
18/01:00pm 22.9 17.1 11.6 49 6.4 W 33 46 18 25 1009.6 - 0.0
18/12:30pm 22.7 18.0 14.2 58 5.0 W 32 43 17 23 1009.7 - 0.0
18/12:00pm 22.8 18.3 12.7 53 5.8 WNW 28 39 15 21 1009.9 - 0.0
18/11:30am 22.9 17.8 12.0 50 6.2 W 30 41 16 22 1010.0 - 0.0
18/11:00am 22.8 17.8 13.3 55 5.5 W 32 41 17 22 1010.2 - 0.0
18/10:30am 22.9 19.3 14.3 58 5.1 W 26 35 14 19 1010.6 1010.3 0.0
18/10:00am 22.1 18.6 15.4 65 4.0 WNW 28 39 15 21 1010.8 - 0.0
18/09:30am 22.3 18.6 15.9 67 3.9 W 30 37 16 20 1010.9 - 0.0
18/09:00am 22.5 19.3 15.3 63 4.3 WNW 26 35 14 19 1010.9 - 0.0
18/08:30am 22.1 18.4 15.1 64 4.2 W 28 39 15 21 1011.0 - 0.0
18/08:00am 21.8 18.4 15.8 68 3.6 WNW 28 37 15 20 1010.9 - 0.0
18/07:30am 21.5 19.4 16.2 72 3.2 WNW 22 30 12 16 1010.8 1010.5 1.4
18/07:00am 21.0 18.6 15.3 70 3.4 WNW 22 32 12 17 1010.7 - 1.4
18/06:30am 20.2 17.6 14.8 71 3.2 WNW 22 32 12 17 1010.4 - 1.4
18/06:00am 19.3 16.9 14.5 74 2.8 NW 20 32 11 17 1010.1 - 1.4
18/05:30am 19.9 16.1 15.7 77 2.5 W 30 50 16 27 1009.9 - 1.4
18/05:28am 20.4 16.6 14.6 69 3.4 W 28 46 15 25 1009.9 - 1.4
18/05:00am 20.3 17.1 14.3 68 3.5 W 24 33 13 18 1009.5 - 1.4
18/04:30am 20.0 17.6 14.4 70 3.3 W 20 30 11 16 1009.3 1008.9 1.4
18/04:00am 19.9 17.8 14.8 72 3.0 W 19 30 10 16 1009.0 - 1.4
18/03:30am 20.0 17.3 14.7 71 3.1 W 22 32 12 17 1008.9 - 1.4
18/03:00am 19.1 18.0 16.4 84 1.6 WNW 17 26 9 14 1008.8 - 1.4
18/02:30am 19.3 16.6 16.5 84 1.7 WNW 26 41 14 22 1009.0 - 1.4
18/02:00am 20.3 17.9 15.3 73 3.0 W 22 33 12 18 1008.9 - 1.2
18/01:30am 20.3 17.3 14.9 71 3.2 W 24 32 13 17 1009.0 1008.6 1.2
18/01:00am 20.4 16.9 14.6 69 3.4 W 26 39 14 21 1009.0 - 1.2
18/12:30am 20.3 18.5 16.0 76 2.6 W 20 28 11 15 1009.0 - 1.2
18/12:00am 20.2 18.3 15.7 75 2.7 W 20 28 11 15 1009.0 - 1.2
 
Date/Time
EST
Temp
°C
App
Temp
°C
Dew
Point
Rel
Hum
%
Delta-T
°C
Wind Press
QNH
hPa
Press
MSL
hPa
Rain
since 9 am
mm
Dir
 
Spd
km/h
Gust
km/h
Spd
kts
Gust
kts
17/11:30pm 20.6 19.1 16.7 78 2.4 W 20 30 11 16 1009.0 - 1.2
17/11:00pm 20.5 19.3 16.0 75 2.7 W 17 28 9 15 1009.0 - 1.2
17/10:30pm 19.9 19.1 16.1 79 2.3 W 15 24 8 13 1009.1 1008.7 1.2
17/10:00pm 20.4 19.6 17.1 81 2.0 W 17 24 9 13 1009.2 - 1.2

Other Formats:

Comma delimited format used in spreadsheet applications
http://www.bom.gov.au/fwo/IDN60801/IDN60801.94996.axf

JavaScript Object Notation format (JSON) in row-major order
http://www.bom.gov.au/fwo/IDN60801/IDN60801.94996.json